Baie-Saint-Paul, Canada
Current Conditions -  °F | °C
As of 8:00 PM on Saturday 25 Oct 2014 (Local Time) from CYOY Reporting Station
Overcast Overcast  
Wind Chill:   Ceiling: 800
Heat Index:   Visibility: 3mi
Dew Point:   Wind: 0mph
Humidity: 93%   Direction: NA
Pressure: 29.45"   Gusts: NA
Location:  47.43°N, 70.5°W
Report Text: CYOY 260000Z AUTO 00000KT 3SM OVC008 OVC023 07/06 A2945 RMKSLP980
Loading
Personal Weather Stations






























Interactive Weather Map
Tropical Storm Tracking
New forecast layout! Learn more

10-Day Weather Forecast

Advertisements
Track Severe Weather on mobile